Ohyamamaru — JG5507 — position and weather

sailwx.info

Track history (hours):
 
Tides and Currents Weather Stations Pressure Air Temp Water Temp Dewpoint Dewpoint Depression Visibility Wind Speed Wind Dir Waves Ship Positions

Ohyamamaru

Last reported at 2015-Feb-28 23:20 UTC. Time now 2015-Mar-01 02:58 UTC.
Position N 35°38' E 139°46'.

Length 36 m; draft 4.4 m.

Type: Tug. MMSI: 431001114.

Date/timePositionNaut miles runAvg speedWind from/ knotsBaromVisibWave heightAir tempDewpointWater temp
2015-Feb-28 23:20N 35°38' E 139°46'2 2.8
2015-Feb-28 22:32N 35°36' E 139°47'1 0.8
2015-Feb-28 21:32N 35°35' E 139°47'0 0.0
2015-Feb-28 20:19N 35°35' E 139°47'3 1.4
2015-Feb-28 18:14N 35°38' E 139°46'0 0.0
2015-Feb-28 03:31N 35°38' E 139°46'2 0.1
2015-Feb-27 13:23N 35°37' E 139°46'0 0.4
2015-Feb-27 12:28N 35°37' E 139°46'1 0.6
2015-Feb-27 10:33N 35°38' E 139°46'5 4.3
2015-Feb-27 09:25N 35°34' E 139°49'4 3.6
2015-Feb-27 08:19N 35°37' E 139°46'1 0.3
2015-Feb-27 03:24N 35°38' E 139°46'0 0.0
2015-Feb-26 21:31N 35°38' E 139°45'1 1.3
2015-Feb-26 20:33N 35°37' E 139°46'1 0.0
2015-Feb-25 03:28N 35°38' E 139°46'1 0.1
2015-Feb-24 12:25N 35°37' E 139°46'0 0.1
2015-Feb-24 11:22N 35°37' E 139°46'0 0.0
2015-Feb-24 01:32N 35°37' E 139°46'0 0.3
2015-Feb-24 00:16N 35°37' E 139°46'1 0.0
2015-Feb-23 09:33N 35°37' E 139°46'1 0.6
2015-Feb-23 08:32N 35°37' E 139°46'2 0.1
2015-Feb-22 22:32N 35°37' E 139°48'1 0.3
2015-Feb-22 20:15N 35°37' E 139°48'2 2.3
2015-Feb-22 19:30N 35°37' E 139°46'  
2015-Feb-20 15:17N 35°37' E 139°46'1 1.0
2015-Feb-20 14:25N 35°37' E 139°47'1 1.1
2015-Feb-20 13:33N 35°37' E 139°46'0 0.1
2015-Feb-20 09:11N 35°38' E 139°46'1 1.5
2015-Feb-20 08:20N 35°36' E 139°46'1 0.1
2015-Feb-19 09:09N 35°38' E 139°46'1 1.1
2015-Feb-19 08:06N 35°37' E 139°46'0 0.9
2015-Feb-19 07:33N 35°37' E 139°46'  
Track history (hours):
 
Tides and Currents Weather Stations Pressure Air Temp Water Temp Dewpoint Dewpoint Depression Visibility Wind Speed Wind Dir Waves Ship Positions

Ohyamamaru

Last reported at 2015-Feb-28 23:20 UTC. Time now 2015-Mar-01 02:58 UTC.
Position N 35°38' E 139°46'.

Length 36 m; draft 4.4 m.

Type: Tug. MMSI: 431001114.

Date/timePositionNaut miles runAvg speedWind from/ knotsBaromVisibWave heightAir tempDewpointWater temp
2015-Feb-28 23:20N 35°38' E 139°46'2 2.8
2015-Feb-28 22:32N 35°36' E 139°47'1 0.8
2015-Feb-28 21:32N 35°35' E 139°47'0 0.0
2015-Feb-28 20:19N 35°35' E 139°47'3 1.4
2015-Feb-28 18:14N 35°38' E 139°46'0 0.0
2015-Feb-28 03:31N 35°38' E 139°46'2 0.1
2015-Feb-27 13:23N 35°37' E 139°46'0 0.4
2015-Feb-27 12:28N 35°37' E 139°46'1 0.6
2015-Feb-27 10:33N 35°38' E 139°46'5 4.3
2015-Feb-27 09:25N 35°34' E 139°49'4 3.6
2015-Feb-27 08:19N 35°37' E 139°46'1 0.3
2015-Feb-27 03:24N 35°38' E 139°46'0 0.0
2015-Feb-26 21:31N 35°38' E 139°45'1 1.3
2015-Feb-26 20:33N 35°37' E 139°46'1 0.0
2015-Feb-25 03:28N 35°38' E 139°46'1 0.1
2015-Feb-24 12:25N 35°37' E 139°46'0 0.1
2015-Feb-24 11:22N 35°37' E 139°46'0 0.0
2015-Feb-24 01:32N 35°37' E 139°46'0 0.3
2015-Feb-24 00:16N 35°37' E 139°46'1 0.0
2015-Feb-23 09:33N 35°37' E 139°46'1 0.6
2015-Feb-23 08:32N 35°37' E 139°46'2 0.1
2015-Feb-22 22:32N 35°37' E 139°48'1 0.3
2015-Feb-22 20:15N 35°37' E 139°48'2 2.3
2015-Feb-22 19:30N 35°37' E 139°46'  
2015-Feb-20 15:17N 35°37' E 139°46'1 1.0
2015-Feb-20 14:25N 35°37' E 139°47'1 1.1
2015-Feb-20 13:33N 35°37' E 139°46'0 0.1
2015-Feb-20 09:11N 35°38' E 139°46'1 1.5
2015-Feb-20 08:20N 35°36' E 139°46'1 0.1
2015-Feb-19 09:09N 35°38' E 139°46'1 1.1
2015-Feb-19 08:06N 35°37' E 139°46'0 0.9
2015-Feb-19 07:33N 35°37' E 139°46'  

Dump ship's entire track history